Pagina principală
METAR-TAF:

METAR-TAF

Aeroporturi :

Rarotonga, Insulele Cook

Latitudine: 21-12S, longitudine: 159-49W, elevație: 7 m

Observații meteo curente

Raportul a fost făcut în urmă cu 43 de minute, la 15:00 UTC
Vânt 5 kt de la Est
Temperatură 23°C
Umiditate 89%
Presiune 1014 hPa
Vizibilitate de 10 km sau mai mult

METAR: NCRG 211500Z AUTO 09005KT 9999 FEW037/// 23/21 Q1014

Ora: 05:43 (15:43 UTC)

Prognoză

Raportul a fost făcut în urmă cu 4 ore și 37 de minute, la 11:06 UTC
Prognoză valabilă de la 21 ora 12 UTC la 22 ora 12 UTC
Vânt 7 kt de la Est
Vizibilitate de 10 km sau mai mult
Nori fragmentați la o înălțime de 4900 picior
Nori fragmentați la o înălțime de 6000 picior

TAF: NCRG 211106Z 2112/2212 09007KT 9999 BKN049 BKN060

Observații și prognoze meteo pentru peste 4.000 de aeroporturi (rapoarte METAR și TAF).

Stațiile disponibile sunt reprezentate pe hartă prin puncte galbene și roșii.

Țineți indicatorul mouse-ului pe punctul dorit pentru a vedea denumirea stației.

Apoi, faceți clic pentru a vedea observațiile și prognozele meteorologice.

Pentru a schimba harta: Pentru mărire, faceți clic pe butoanele verzi cu cruce neagră; pentru micșorare, pe butonul verde cu o liniuță; pentru hărți învecinate, pe săgețile verzi.


METAR-TAF: